sensor_id;sensor_type;location;lat;lon;timestamp;temperature;humidity
46319;DHT22;32042;50.916;2.926;2023-02-01T00:01:41;7.10;99.90
46319;DHT22;32042;50.916;2.926;2023-02-01T00:04:07;7.10;99.90
46319;DHT22;32042;50.916;2.926;2023-02-01T00:06:33;7.10;99.90
46319;DHT22;32042;50.916;2.926;2023-02-01T00:08:58;7.10;99.90
46319;DHT22;32042;50.916;2.926;2023-02-01T00:11:24;7.10;99.90
46319;DHT22;32042;50.916;2.926;2023-02-01T00:13:57;7.10;99.90
46319;DHT22;32042;50.916;2.926;2023-02-01T00:16:28;7.10;99.90
46319;DHT22;32042;50.916;2.926;2023-02-01T00:19:05;7.10;99.90
46319;DHT22;32042;50.916;2.926;2023-02-01T00:21:31;7.00;99.90
46319;DHT22;32042;50.916;2.926;2023-02-01T00:23:58;6.90;99.90
46319;DHT22;32042;50.916;2.926;2023-02-01T00:26:38;6.90;99.90
46319;DHT22;32042;50.916;2.926;2023-02-01T00:29:09;6.90;99.90
46319;DHT22;32042;50.916;2.926;2023-02-01T00:31:35;6.80;99.90
46319;DHT22;32042;50.916;2.926;2023-02-01T00:34:01;6.80;99.90
46319;DHT22;32042;50.916;2.926;2023-02-01T00:36:27;6.80;99.90
46319;DHT22;32042;50.916;2.926;2023-02-01T00:38:53;6.70;99.90
46319;DHT22;32042;50.916;2.926;2023-02-01T00:41:20;6.70;99.90
46319;DHT22;32042;50.916;2.926;2023-02-01T00:43:47;6.70;99.90
46319;DHT22;32042;50.916;2.926;2023-02-01T00:46:15;6.70;99.90
46319;DHT22;32042;50.916;2.926;2023-02-01T00:48:41;6.80;99.90
46319;DHT22;32042;50.916;2.926;2023-02-01T00:51:09;6.80;99.90
46319;DHT22;32042;50.916;2.926;2023-02-01T00:53:35;6.80;99.90
46319;DHT22;32042;50.916;2.926;2023-02-01T00:56:01;6.80;99.90
46319;DHT22;32042;50.916;2.926;2023-02-01T00:58:27;6.70;99.90
46319;DHT22;32042;50.916;2.926;2023-02-01T01:01:14;6.70;99.90
46319;DHT22;32042;50.916;2.926;2023-02-01T01:03:46;6.70;99.90
46319;DHT22;32042;50.916;2.926;2023-02-01T01:06:14;6.70;99.90
46319;DHT22;32042;50.916;2.926;2023-02-01T01:08:42;6.60;99.90
46319;DHT22;32042;50.916;2.926;2023-02-01T01:11:13;6.60;99.90
46319;DHT22;32042;50.916;2.926;2023-02-01T01:13:39;6.60;99.90
46319;DHT22;32042;50.916;2.926;2023-02-01T01:16:06;6.60;99.90
46319;DHT22;32042;50.916;2.926;2023-02-01T01:18:33;6.50;99.90
46319;DHT22;32042;50.916;2.926;2023-02-01T01:21:00;6.40;99.90
46319;DHT22;32042;50.916;2.926;2023-02-01T01:23:27;6.40;99.90
46319;DHT22;32042;50.916;2.926;2023-02-01T01:25:53;6.30;99.90
46319;DHT22;32042;50.916;2.926;2023-02-01T01:28:19;6.30;99.90
46319;DHT22;32042;50.916;2.926;2023-02-01T01:30:45;6.30;99.90
46319;DHT22;32042;50.916;2.926;2023-02-01T01:33:10;6.30;99.90
46319;DHT22;32042;50.916;2.926;2023-02-01T01:35:36;6.30;99.90
46319;DHT22;32042;50.916;2.926;2023-02-01T01:38:02;6.40;99.90
46319;DHT22;32042;50.916;2.926;2023-02-01T01:40:29;6.30;99.90
46319;DHT22;32042;50.916;2.926;2023-02-01T01:42:55;6.30;99.90
46319;DHT22;32042;50.916;2.926;2023-02-01T01:45:26;6.20;99.90
46319;DHT22;32042;50.916;2.926;2023-02-01T01:47:55;6.20;99.90
46319;DHT22;32042;50.916;2.926;2023-02-01T01:53:22;6.10;99.90
46319;DHT22;32042;50.916;2.926;2023-02-01T01:55:50;6.00;99.90
46319;DHT22;32042;50.916;2.926;2023-02-01T01:58:19;6.00;99.90
46319;DHT22;32042;50.916;2.926;2023-02-01T02:00:46;5.90;99.90
46319;DHT22;32042;50.916;2.926;2023-02-01T02:05:53;5.80;99.90
46319;DHT22;32042;50.916;2.926;2023-02-01T02:08:19;5.80;99.90
46319;DHT22;32042;50.916;2.926;2023-02-01T02:10:47;5.80;99.90
46319;DHT22;32042;50.916;2.926;2023-02-01T02:18:46;5.90;99.90
46319;DHT22;32042;50.916;2.926;2023-02-01T02:21:47;5.90;99.90
46319;DHT22;32042;50.916;2.926;2023-02-01T02:32:53;5.90;99.90
46319;DHT22;32042;50.916;2.926;2023-02-01T02:35:46;5.90;99.90
46319;DHT22;32042;50.916;2.926;2023-02-01T02:41:22;5.80;99.90
46319;DHT22;32042;50.916;2.926;2023-02-01T02:44:21;5.80;99.90
46319;DHT22;32042;50.916;2.926;2023-02-01T02:47:16;5.80;99.90
46319;DHT22;32042;50.916;2.926;2023-02-01T02:49:56;5.90;99.90
46319;DHT22;32042;50.916;2.926;2023-02-01T02:52:48;5.90;99.90
46319;DHT22;32042;50.916;2.926;2023-02-01T02:55:37;5.80;99.90
46319;DHT22;32042;50.916;2.926;2023-02-01T02:58:05;5.80;99.90
46319;DHT22;32042;50.916;2.926;2023-02-01T03:00:51;5.70;99.90
46319;DHT22;32042;50.916;2.926;2023-02-01T03:03:38;5.70;99.90
46319;DHT22;32042;50.916;2.926;2023-02-01T03:06:24;5.70;99.90
46319;DHT22;32042;50.916;2.926;2023-02-01T03:08:50;5.70;99.90
46319;DHT22;32042;50.916;2.926;2023-02-01T03:11:22;5.60;99.90
46319;DHT22;32042;50.916;2.926;2023-02-01T03:13:55;5.60;99.90
46319;DHT22;32042;50.916;2.926;2023-02-01T03:16:43;5.60;99.90
46319;DHT22;32042;50.916;2.926;2023-02-01T03:19:21;5.60;99.90
46319;DHT22;32042;50.916;2.926;2023-02-01T03:24:34;5.60;99.90
46319;DHT22;32042;50.916;2.926;2023-02-01T03:27:11;5.60;99.90
46319;DHT22;32042;50.916;2.926;2023-02-01T03:32:10;5.60;99.90
46319;DHT22;32042;50.916;2.926;2023-02-01T03:34:36;5.60;99.90
46319;DHT22;32042;50.916;2.926;2023-02-01T03:37:13;5.60;99.90
46319;DHT22;32042;50.916;2.926;2023-02-01T03:39:56;5.60;99.90
46319;DHT22;32042;50.916;2.926;2023-02-01T03:42:46;5.60;99.90
46319;DHT22;32042;50.916;2.926;2023-02-01T03:45:25;5.60;99.90
46319;DHT22;32042;50.916;2.926;2023-02-01T03:47:55;5.60;99.90
46319;DHT22;32042;50.916;2.926;2023-02-01T03:50:23;5.60;99.90
46319;DHT22;32042;50.916;2.926;2023-02-01T03:53:10;5.60;99.90
46319;DHT22;32042;50.916;2.926;2023-02-01T03:55:37;5.60;99.90
46319;DHT22;32042;50.916;2.926;2023-02-01T03:58:08;5.60;99.90
46319;DHT22;32042;50.916;2.926;2023-02-01T04:00:35;5.50;99.90
46319;DHT22;32042;50.916;2.926;2023-02-01T04:03:03;5.50;99.90
46319;DHT22;32042;50.916;2.926;2023-02-01T04:05:29;5.50;99.90
46319;DHT22;32042;50.916;2.926;2023-02-01T04:07:56;5.50;99.90
46319;DHT22;32042;50.916;2.926;2023-02-01T04:10:21;5.50;99.90
46319;DHT22;32042;50.916;2.926;2023-02-01T04:12:47;5.50;99.90
46319;DHT22;32042;50.916;2.926;2023-02-01T04:15:13;5.60;99.90
46319;DHT22;32042;50.916;2.926;2023-02-01T04:17:38;5.60;99.90
46319;DHT22;32042;50.916;2.926;2023-02-01T04:20:04;5.60;99.90
46319;DHT22;32042;50.916;2.926;2023-02-01T04:22:30;5.60;99.90
46319;DHT22;32042;50.916;2.926;2023-02-01T04:24:56;5.60;99.90
46319;DHT22;32042;50.916;2.926;2023-02-01T04:27:22;5.60;99.90
46319;DHT22;32042;50.916;2.926;2023-02-01T04:29:48;5.60;99.90
46319;DHT22;32042;50.916;2.926;2023-02-01T04:32:15;5.50;99.90
46319;DHT22;32042;50.916;2.926;2023-02-01T04:34:41;5.50;99.90
46319;DHT22;32042;50.916;2.926;2023-02-01T04:37:07;5.50;99.90
46319;DHT22;32042;50.916;2.926;2023-02-01T04:39:33;5.50;99.90
46319;DHT22;32042;50.916;2.926;2023-02-01T04:41:59;5.40;99.90
46319;DHT22;32042;50.916;2.926;2023-02-01T04:44:25;5.40;99.90
46319;DHT22;32042;50.916;2.926;2023-02-01T04:46:50;5.40;99.90
46319;DHT22;32042;50.916;2.926;2023-02-01T04:49:16;5.50;99.90
46319;DHT22;32042;50.916;2.926;2023-02-01T04:51:42;5.50;99.90
46319;DHT22;32042;50.916;2.926;2023-02-01T04:54:08;5.50;99.90
46319;DHT22;32042;50.916;2.926;2023-02-01T04:56:37;5.50;99.90
46319;DHT22;32042;50.916;2.926;2023-02-01T04:59:03;5.50;99.90
46319;DHT22;32042;50.916;2.926;2023-02-01T05:01:29;5.50;99.90
46319;DHT22;32042;50.916;2.926;2023-02-01T05:03:55;5.50;99.90
46319;DHT22;32042;50.916;2.926;2023-02-01T05:06:21;5.50;99.90
46319;DHT22;32042;50.916;2.926;2023-02-01T05:08:47;5.50;99.90
46319;DHT22;32042;50.916;2.926;2023-02-01T05:11:12;5.50;99.90
46319;DHT22;32042;50.916;2.926;2023-02-01T05:13:57;5.50;99.90
46319;DHT22;32042;50.916;2.926;2023-02-01T05:16:23;5.50;99.90
46319;DHT22;32042;50.916;2.926;2023-02-01T05:18:49;5.50;99.90
46319;DHT22;32042;50.916;2.926;2023-02-01T05:21:14;5.50;99.90
46319;DHT22;32042;50.916;2.926;2023-02-01T05:23:40;5.40;99.90
46319;DHT22;32042;50.916;2.926;2023-02-01T05:26:24;5.50;99.90
46319;DHT22;32042;50.916;2.926;2023-02-01T05:28:50;5.50;99.90
46319;DHT22;32042;50.916;2.926;2023-02-01T05:31:16;5.50;99.90
46319;DHT22;32042;50.916;2.926;2023-02-01T05:33:42;5.60;99.90
46319;DHT22;32042;50.916;2.926;2023-02-01T05:36:08;5.50;99.90
46319;DHT22;32042;50.916;2.926;2023-02-01T05:38:33;5.50;99.90
46319;DHT22;32042;50.916;2.926;2023-02-01T05:40:59;5.50;99.90
46319;DHT22;32042;50.916;2.926;2023-02-01T05:43:25;5.40;99.90
46319;DHT22;32042;50.916;2.926;2023-02-01T05:45:53;5.50;99.90
46319;DHT22;32042;50.916;2.926;2023-02-01T05:48:19;5.40;99.90
46319;DHT22;32042;50.916;2.926;2023-02-01T05:50:45;5.50;99.90
46319;DHT22;32042;50.916;2.926;2023-02-01T05:53:11;5.50;99.90
46319;DHT22;32042;50.916;2.926;2023-02-01T05:55:37;5.50;99.90
46319;DHT22;32042;50.916;2.926;2023-02-01T05:58:03;5.50;99.90
46319;DHT22;32042;50.916;2.926;2023-02-01T06:00:29;5.50;99.90
46319;DHT22;32042;50.916;2.926;2023-02-01T06:02:55;5.50;99.90
46319;DHT22;32042;50.916;2.926;2023-02-01T06:05:21;5.40;99.90
46319;DHT22;32042;50.916;2.926;2023-02-01T06:07:46;5.40;99.90
46319;DHT22;32042;50.916;2.926;2023-02-01T06:10:12;5.40;99.90
46319;DHT22;32042;50.916;2.926;2023-02-01T06:12:38;5.40;99.90
46319;DHT22;32042;50.916;2.926;2023-02-01T06:15:04;5.50;99.90
46319;DHT22;32042;50.916;2.926;2023-02-01T06:17:30;5.50;99.90
46319;DHT22;32042;50.916;2.926;2023-02-01T06:19:56;5.50;99.90
46319;DHT22;32042;50.916;2.926;2023-02-01T06:22:22;5.40;99.90
46319;DHT22;32042;50.916;2.926;2023-02-01T06:24:48;5.50;99.90
46319;DHT22;32042;50.916;2.926;2023-02-01T06:27:14;5.50;99.90
46319;DHT22;32042;50.916;2.926;2023-02-01T06:29:40;5.50;99.90
46319;DHT22;32042;50.916;2.926;2023-02-01T06:32:06;5.50;99.90
46319;DHT22;32042;50.916;2.926;2023-02-01T06:34:32;5.50;99.90
46319;DHT22;32042;50.916;2.926;2023-02-01T06:36:58;5.40;99.90
46319;DHT22;32042;50.916;2.926;2023-02-01T06:39:23;5.40;99.90
46319;DHT22;32042;50.916;2.926;2023-02-01T06:41:50;5.50;99.90
46319;DHT22;32042;50.916;2.926;2023-02-01T06:44:16;5.50;99.90
46319;DHT22;32042;50.916;2.926;2023-02-01T06:46:42;5.50;99.90
46319;DHT22;32042;50.916;2.926;2023-02-01T06:49:08;5.60;99.90
46319;DHT22;32042;50.916;2.926;2023-02-01T06:51:34;5.60;99.90
46319;DHT22;32042;50.916;2.926;2023-02-01T06:54:00;5.70;99.90
46319;DHT22;32042;50.916;2.926;2023-02-01T06:56:26;5.70;99.90
46319;DHT22;32042;50.916;2.926;2023-02-01T06:58:52;5.70;99.90
46319;DHT22;32042;50.916;2.926;2023-02-01T07:01:18;5.80;99.90
46319;DHT22;32042;50.916;2.926;2023-02-01T07:03:48;5.80;99.90
46319;DHT22;32042;50.916;2.926;2023-02-01T07:06:14;5.80;99.90
46319;DHT22;32042;50.916;2.926;2023-02-01T07:08:40;5.80;99.90
46319;DHT22;32042;50.916;2.926;2023-02-01T07:11:10;5.80;99.90
46319;DHT22;32042;50.916;2.926;2023-02-01T07:13:36;5.80;99.90
46319;DHT22;32042;50.916;2.926;2023-02-01T07:16:04;5.80;99.90
46319;DHT22;32042;50.916;2.926;2023-02-01T07:18:30;5.80;99.90
46319;DHT22;32042;50.916;2.926;2023-02-01T07:20:56;5.80;99.90
46319;DHT22;32042;50.916;2.926;2023-02-01T07:23:23;5.80;99.90
46319;DHT22;32042;50.916;2.926;2023-02-01T07:25:52;5.80;99.90
46319;DHT22;32042;50.916;2.926;2023-02-01T07:28:18;5.90;99.90
46319;DHT22;32042;50.916;2.926;2023-02-01T07:30:43;5.90;99.90
46319;DHT22;32042;50.916;2.926;2023-02-01T07:33:22;5.90;99.90
46319;DHT22;32042;50.916;2.926;2023-02-01T07:35:49;6.00;99.90
46319;DHT22;32042;50.916;2.926;2023-02-01T07:38:15;6.00;99.90
46319;DHT22;32042;50.916;2.926;2023-02-01T07:40:42;6.00;99.90
46319;DHT22;32042;50.916;2.926;2023-02-01T07:43:08;6.00;99.90
46319;DHT22;32042;50.916;2.926;2023-02-01T07:45:35;6.00;99.90
46319;DHT22;32042;50.916;2.926;2023-02-01T07:48:02;6.00;99.90
46319;DHT22;32042;50.916;2.926;2023-02-01T07:50:28;6.00;99.90
46319;DHT22;32042;50.916;2.926;2023-02-01T07:52:54;6.10;99.90
46319;DHT22;32042;50.916;2.926;2023-02-01T07:55:20;6.10;99.90
46319;DHT22;32042;50.916;2.926;2023-02-01T07:57:46;6.10;99.90
46319;DHT22;32042;50.916;2.926;2023-02-01T08:00:13;6.10;99.90
46319;DHT22;32042;50.916;2.926;2023-02-01T08:02:58;6.10;99.90
46319;DHT22;32042;50.916;2.926;2023-02-01T08:05:27;6.10;99.90
46319;DHT22;32042;50.916;2.926;2023-02-01T08:07:53;6.10;99.90
46319;DHT22;32042;50.916;2.926;2023-02-01T08:10:19;6.20;99.90
46319;DHT22;32042;50.916;2.926;2023-02-01T08:12:45;6.20;99.90
46319;DHT22;32042;50.916;2.926;2023-02-01T08:15:17;6.20;99.90
46319;DHT22;32042;50.916;2.926;2023-02-01T08:17:47;6.20;99.90
46319;DHT22;32042;50.916;2.926;2023-02-01T08:20:13;6.20;99.90
46319;DHT22;32042;50.916;2.926;2023-02-01T08:22:39;6.30;99.90
46319;DHT22;32042;50.916;2.926;2023-02-01T08:25:05;6.30;99.90
46319;DHT22;32042;50.916;2.926;2023-02-01T08:27:35;6.30;99.90
46319;DHT22;32042;50.916;2.926;2023-02-01T08:30:01;6.30;99.90
46319;DHT22;32042;50.916;2.926;2023-02-01T08:32:27;6.30;99.90
46319;DHT22;32042;50.916;2.926;2023-02-01T08:34:53;6.30;99.90
46319;DHT22;32042;50.916;2.926;2023-02-01T08:37:19;6.40;99.90
46319;DHT22;32042;50.916;2.926;2023-02-01T08:39:44;6.40;99.90
46319;DHT22;32042;50.916;2.926;2023-02-01T08:42:11;6.50;99.90
46319;DHT22;32042;50.916;2.926;2023-02-01T08:44:55;6.50;99.90
46319;DHT22;32042;50.916;2.926;2023-02-01T08:47:21;6.50;99.90
46319;DHT22;32042;50.916;2.926;2023-02-01T08:49:46;6.60;99.90
46319;DHT22;32042;50.916;2.926;2023-02-01T08:52:12;6.60;99.90
46319;DHT22;32042;50.916;2.926;2023-02-01T08:54:38;6.70;99.90
46319;DHT22;32042;50.916;2.926;2023-02-01T08:57:05;6.70;99.90
46319;DHT22;32042;50.916;2.926;2023-02-01T08:59:31;6.70;99.90
46319;DHT22;32042;50.916;2.926;2023-02-01T09:01:56;6.80;99.90
46319;DHT22;32042;50.916;2.926;2023-02-01T09:04:22;6.80;99.90
46319;DHT22;32042;50.916;2.926;2023-02-01T09:06:48;6.80;99.90
46319;DHT22;32042;50.916;2.926;2023-02-01T09:09:13;6.90;99.90
46319;DHT22;32042;50.916;2.926;2023-02-01T09:11:39;6.90;99.90
46319;DHT22;32042;50.916;2.926;2023-02-01T09:14:05;6.90;99.90
46319;DHT22;32042;50.916;2.926;2023-02-01T09:16:31;7.00;99.90
46319;DHT22;32042;50.916;2.926;2023-02-01T09:18:57;7.00;99.90
46319;DHT22;32042;50.916;2.926;2023-02-01T09:21:23;7.10;99.90
46319;DHT22;32042;50.916;2.926;2023-02-01T09:23:51;7.20;99.90
46319;DHT22;32042;50.916;2.926;2023-02-01T09:26:17;7.20;99.90
46319;DHT22;32042;50.916;2.926;2023-02-01T09:28:42;7.30;99.90
46319;DHT22;32042;50.916;2.926;2023-02-01T09:31:08;7.30;99.90
46319;DHT22;32042;50.916;2.926;2023-02-01T09:33:34;7.40;99.90
46319;DHT22;32042;50.916;2.926;2023-02-01T09:36:03;7.50;99.90
46319;DHT22;32042;50.916;2.926;2023-02-01T09:38:30;7.60;99.90
46319;DHT22;32042;50.916;2.926;2023-02-01T09:40:56;7.60;99.90
46319;DHT22;32042;50.916;2.926;2023-02-01T09:48:42;7.90;99.90
46319;DHT22;32042;50.916;2.926;2023-02-01T09:51:29;8.10;99.90
46319;DHT22;32042;50.916;2.926;2023-02-01T09:54:20;8.10;99.90
46319;DHT22;32042;50.916;2.926;2023-02-01T09:56:58;8.20;99.90
46319;DHT22;32042;50.916;2.926;2023-02-01T09:59:47;8.20;99.90
46319;DHT22;32042;50.916;2.926;2023-02-01T10:02:19;8.20;99.90
46319;DHT22;32042;50.916;2.926;2023-02-01T10:04:47;8.20;99.90
46319;DHT22;32042;50.916;2.926;2023-02-01T10:07:39;8.20;99.90
46319;DHT22;32042;50.916;2.926;2023-02-01T10:10:32;8.20;99.90
46319;DHT22;32042;50.916;2.926;2023-02-01T10:16:25;8.40;99.90
46319;DHT22;32042;50.916;2.926;2023-02-01T10:18:59;8.40;99.90
46319;DHT22;32042;50.916;2.926;2023-02-01T10:24:26;8.50;99.90
46319;DHT22;32042;50.916;2.926;2023-02-01T10:29:44;8.40;99.90
46319;DHT22;32042;50.916;2.926;2023-02-01T10:32:21;8.50;99.90
46319;DHT22;32042;50.916;2.926;2023-02-01T10:34:57;8.50;99.90
46319;DHT22;32042;50.916;2.926;2023-02-01T10:37:33;8.50;99.90
46319;DHT22;32042;50.916;2.926;2023-02-01T10:40:36;8.50;99.90
46319;DHT22;32042;50.916;2.926;2023-02-01T10:42:58;8.50;99.90
46319;DHT22;32042;50.916;2.926;2023-02-01T10:45:28;8.50;99.90
46319;DHT22;32042;50.916;2.926;2023-02-01T10:47:55;8.70;99.90
46319;DHT22;32042;50.916;2.926;2023-02-01T10:55:50;8.90;99.90
46319;DHT22;32042;50.916;2.926;2023-02-01T10:58:18;9.00;99.90
46319;DHT22;32042;50.916;2.926;2023-02-01T11:00:53;9.00;99.90
46319;DHT22;32042;50.916;2.926;2023-02-01T11:08:52;9.10;99.90
46319;DHT22;32042;50.916;2.926;2023-02-01T11:11:19;9.20;99.90
46319;DHT22;32042;50.916;2.926;2023-02-01T11:13:55;9.30;99.90
46319;DHT22;32042;50.916;2.926;2023-02-01T11:16:33;9.40;99.90
46319;DHT22;32042;50.916;2.926;2023-02-01T11:19:00;9.50;99.90
46319;DHT22;32042;50.916;2.926;2023-02-01T11:21:25;9.60;99.90
46319;DHT22;32042;50.916;2.926;2023-02-01T11:23:51;9.50;99.90
46319;DHT22;32042;50.916;2.926;2023-02-01T11:26:25;9.40;99.90
46319;DHT22;32042;50.916;2.926;2023-02-01T11:28:57;9.50;99.90
46319;DHT22;32042;50.916;2.926;2023-02-01T11:31:25;9.50;99.90
46319;DHT22;32042;50.916;2.926;2023-02-01T11:34:07;9.50;99.90
46319;DHT22;32042;50.916;2.926;2023-02-01T11:36:33;9.50;99.90
46319;DHT22;32042;50.916;2.926;2023-02-01T11:44:36;9.50;99.90
46319;DHT22;32042;50.916;2.926;2023-02-01T11:47:29;9.60;99.90
46319;DHT22;32042;50.916;2.926;2023-02-01T11:50:03;9.60;99.90
46319;DHT22;32042;50.916;2.926;2023-02-01T12:00:40;9.60;99.90
46319;DHT22;32042;50.916;2.926;2023-02-01T12:08:25;9.40;99.90
46319;DHT22;32042;50.916;2.926;2023-02-01T12:13:54;9.50;99.90
46319;DHT22;32042;50.916;2.926;2023-02-01T12:19:05;9.60;99.90
46319;DHT22;32042;50.916;2.926;2023-02-01T12:21:56;9.60;99.90
46319;DHT22;32042;50.916;2.926;2023-02-01T12:27:19;9.90;99.90
46319;DHT22;32042;50.916;2.926;2023-02-01T12:35:53;9.90;99.90
46319;DHT22;32042;50.916;2.926;2023-02-01T12:38:45;9.90;99.90
46319;DHT22;32042;50.916;2.926;2023-02-01T12:41:50;9.90;99.90
46319;DHT22;32042;50.916;2.926;2023-02-01T12:50:35;9.90;99.90
46319;DHT22;32042;50.916;2.926;2023-02-01T12:52:54;9.90;99.90
46319;DHT22;32042;50.916;2.926;2023-02-01T12:55:42;9.90;99.90
46319;DHT22;32042;50.916;2.926;2023-02-01T12:58:18;9.90;99.90
46319;DHT22;32042;50.916;2.926;2023-02-01T13:01:00;10.00;99.90
46319;DHT22;32042;50.916;2.926;2023-02-01T13:03:40;10.00;99.90
46319;DHT22;32042;50.916;2.926;2023-02-01T13:06:28;10.00;99.90
46319;DHT22;32042;50.916;2.926;2023-02-01T13:11:44;9.90;99.90
46319;DHT22;32042;50.916;2.926;2023-02-01T13:14:33;9.80;99.90
46319;DHT22;32042;50.916;2.926;2023-02-01T13:17:05;9.70;99.90
46319;DHT22;32042;50.916;2.926;2023-02-01T13:22:38;9.50;99.90
46319;DHT22;32042;50.916;2.926;2023-02-01T13:27:53;9.50;99.90
46319;DHT22;32042;50.916;2.926;2023-02-01T13:30:33;9.50;99.90
46319;DHT22;32042;50.916;2.926;2023-02-01T13:37:00;9.70;99.90
46319;DHT22;32042;50.916;2.926;2023-02-01T13:42:00;9.90;99.90
46319;DHT22;32042;50.916;2.926;2023-02-01T13:44:39;9.90;99.90
46319;DHT22;32042;50.916;2.926;2023-02-01T13:47:38;10.00;99.90
46319;DHT22;32042;50.916;2.926;2023-02-01T13:52:45;9.90;99.90
46319;DHT22;32042;50.916;2.926;2023-02-01T13:57:47;10.00;99.90
46319;DHT22;32042;50.916;2.926;2023-02-01T14:00:29;10.10;99.90
46319;DHT22;32042;50.916;2.926;2023-02-01T14:08:23;10.10;99.90
46319;DHT22;32042;50.916;2.926;2023-02-01T14:10:57;10.10;99.90
46319;DHT22;32042;50.916;2.926;2023-02-01T14:13:36;10.00;99.90
46319;DHT22;32042;50.916;2.926;2023-02-01T14:21:25;9.80;99.90
46319;DHT22;32042;50.916;2.926;2023-02-01T14:28:53;9.60;99.90
46319;DHT22;32042;50.916;2.926;2023-02-01T14:31:35;9.50;99.90
46319;DHT22;32042;50.916;2.926;2023-02-01T14:34:17;9.40;99.90
46319;DHT22;32042;50.916;2.926;2023-02-01T14:36:50;9.40;99.90
46319;DHT22;32042;50.916;2.926;2023-02-01T14:39:23;9.40;99.90
46319;DHT22;32042;50.916;2.926;2023-02-01T14:41:54;9.30;99.90
46319;DHT22;32042;50.916;2.926;2023-02-01T14:44:26;9.30;99.90
46319;DHT22;32042;50.916;2.926;2023-02-01T14:47:27;9.30;99.90
46319;DHT22;32042;50.916;2.926;2023-02-01T14:52:22;9.20;99.90
46319;DHT22;32042;50.916;2.926;2023-02-01T14:54:54;9.10;99.90
46319;DHT22;32042;50.916;2.926;2023-02-01T14:57:24;9.10;99.90
46319;DHT22;32042;50.916;2.926;2023-02-01T14:59:59;9.10;99.90
46319;DHT22;32042;50.916;2.926;2023-02-01T15:02:27;9.10;99.90
46319;DHT22;32042;50.916;2.926;2023-02-01T15:04:55;9.10;99.90
46319;DHT22;32042;50.916;2.926;2023-02-01T15:07:23;9.10;99.90
46319;DHT22;32042;50.916;2.926;2023-02-01T15:09:50;9.00;99.90
46319;DHT22;32042;50.916;2.926;2023-02-01T15:12:22;9.00;99.90
46319;DHT22;32042;50.916;2.926;2023-02-01T15:15:14;8.90;99.90
46319;DHT22;32042;50.916;2.926;2023-02-01T15:17:41;8.90;99.90
46319;DHT22;32042;50.916;2.926;2023-02-01T15:20:16;8.90;99.90
46319;DHT22;32042;50.916;2.926;2023-02-01T15:22:55;8.90;99.90
46319;DHT22;32042;50.916;2.926;2023-02-01T15:25:34;8.90;99.90
46319;DHT22;32042;50.916;2.926;2023-02-01T15:28:04;8.90;99.90
46319;DHT22;32042;50.916;2.926;2023-02-01T15:30:33;8.90;99.90
46319;DHT22;32042;50.916;2.926;2023-02-01T15:33:17;8.90;99.90
46319;DHT22;32042;50.916;2.926;2023-02-01T15:35:54;8.90;99.90
46319;DHT22;32042;50.916;2.926;2023-02-01T15:41:17;8.80;99.90
46319;DHT22;32042;50.916;2.926;2023-02-01T15:46:24;8.80;99.90
46319;DHT22;32042;50.916;2.926;2023-02-01T15:48:55;8.70;99.90
46319;DHT22;32042;50.916;2.926;2023-02-01T15:51:24;8.70;99.90
46319;DHT22;32042;50.916;2.926;2023-02-01T15:54:02;8.70;99.90
46319;DHT22;32042;50.916;2.926;2023-02-01T15:56:37;8.70;99.90
46319;DHT22;32042;50.916;2.926;2023-02-01T15:59:12;8.60;99.90
46319;DHT22;32042;50.916;2.926;2023-02-01T16:01:39;8.60;99.90
46319;DHT22;32042;50.916;2.926;2023-02-01T16:04:16;8.60;99.90
46319;DHT22;32042;50.916;2.926;2023-02-01T16:06:51;8.60;99.90
46319;DHT22;32042;50.916;2.926;2023-02-01T16:09:20;8.60;99.90
46319;DHT22;32042;50.916;2.926;2023-02-01T16:11:54;8.50;99.90
46319;DHT22;32042;50.916;2.926;2023-02-01T16:14:20;8.50;99.90
46319;DHT22;32042;50.916;2.926;2023-02-01T16:16:46;8.50;99.90
46319;DHT22;32042;50.916;2.926;2023-02-01T16:19:12;8.50;99.90
46319;DHT22;32042;50.916;2.926;2023-02-01T16:21:37;8.50;99.90
46319;DHT22;32042;50.916;2.926;2023-02-01T16:24:03;8.40;99.90
46319;DHT22;32042;50.916;2.926;2023-02-01T16:26:34;8.40;99.90
46319;DHT22;32042;50.916;2.926;2023-02-01T16:29:00;8.40;99.90
46319;DHT22;32042;50.916;2.926;2023-02-01T16:31:33;8.40;99.90
46319;DHT22;32042;50.916;2.926;2023-02-01T16:34:00;8.40;99.90
46319;DHT22;32042;50.916;2.926;2023-02-01T16:36:25;8.30;99.90
46319;DHT22;32042;50.916;2.926;2023-02-01T16:38:53;8.30;99.90
46319;DHT22;32042;50.916;2.926;2023-02-01T16:41:21;8.30;99.90
46319;DHT22;32042;50.916;2.926;2023-02-01T16:43:50;8.30;99.90
46319;DHT22;32042;50.916;2.926;2023-02-01T16:46:18;8.30;99.90
46319;DHT22;32042;50.916;2.926;2023-02-01T16:48:59;8.30;99.90
46319;DHT22;32042;50.916;2.926;2023-02-01T16:51:26;8.30;99.90
46319;DHT22;32042;50.916;2.926;2023-02-01T16:53:53;8.30;99.90
46319;DHT22;32042;50.916;2.926;2023-02-01T16:56:25;8.30;99.90
46319;DHT22;32042;50.916;2.926;2023-02-01T16:58:53;8.30;99.90
46319;DHT22;32042;50.916;2.926;2023-02-01T17:01:20;8.30;99.90
46319;DHT22;32042;50.916;2.926;2023-02-01T17:03:46;8.30;99.90
46319;DHT22;32042;50.916;2.926;2023-02-01T17:06:18;8.30;99.90
46319;DHT22;32042;50.916;2.926;2023-02-01T17:08:50;8.30;99.90
46319;DHT22;32042;50.916;2.926;2023-02-01T17:11:16;8.30;99.90
46319;DHT22;32042;50.916;2.926;2023-02-01T17:13:43;8.20;99.90
46319;DHT22;32042;50.916;2.926;2023-02-01T17:16:25;8.20;99.90
46319;DHT22;32042;50.916;2.926;2023-02-01T17:19:01;8.20;99.90
46319;DHT22;32042;50.916;2.926;2023-02-01T17:21:29;8.20;99.90
46319;DHT22;32042;50.916;2.926;2023-02-01T17:23:56;8.20;99.90
46319;DHT22;32042;50.916;2.926;2023-02-01T17:26:24;8.20;99.90
46319;DHT22;32042;50.916;2.926;2023-02-01T17:28:50;8.20;99.90
46319;DHT22;32042;50.916;2.926;2023-02-01T17:31:16;8.20;99.90
46319;DHT22;32042;50.916;2.926;2023-02-01T17:33:43;8.20;99.90
46319;DHT22;32042;50.916;2.926;2023-02-01T17:36:13;8.20;99.90
46319;DHT22;32042;50.916;2.926;2023-02-01T17:38:39;8.20;99.90
46319;DHT22;32042;50.916;2.926;2023-02-01T17:41:05;8.20;99.90
46319;DHT22;32042;50.916;2.926;2023-02-01T17:43:30;8.10;99.90
46319;DHT22;32042;50.916;2.926;2023-02-01T17:46:10;8.10;99.90
46319;DHT22;32042;50.916;2.926;2023-02-01T17:48:37;8.10;99.90
46319;DHT22;32042;50.916;2.926;2023-02-01T17:51:08;8.10;99.90
46319;DHT22;32042;50.916;2.926;2023-02-01T17:53:37;8.10;99.90
46319;DHT22;32042;50.916;2.926;2023-02-01T17:56:03;8.10;99.90
46319;DHT22;32042;50.916;2.926;2023-02-01T17:58:28;8.10;99.90
46319;DHT22;32042;50.916;2.926;2023-02-01T18:00:57;8.10;99.90
46319;DHT22;32042;50.916;2.926;2023-02-01T18:03:26;8.10;99.90
46319;DHT22;32042;50.916;2.926;2023-02-01T18:05:53;8.10;99.90
46319;DHT22;32042;50.916;2.926;2023-02-01T18:08:21;8.10;99.90
46319;DHT22;32042;50.916;2.926;2023-02-01T18:10:49;8.10;99.90
46319;DHT22;32042;50.916;2.926;2023-02-01T18:13:15;8.10;99.90
46319;DHT22;32042;50.916;2.926;2023-02-01T18:15:41;8.10;99.90
46319;DHT22;32042;50.916;2.926;2023-02-01T18:18:07;8.10;99.90
46319;DHT22;32042;50.916;2.926;2023-02-01T18:20:33;8.20;99.90
46319;DHT22;32042;50.916;2.926;2023-02-01T18:23:01;8.20;99.90